sensor_id;sensor_type;location;lat;lon;timestamp;P1;durP1;ratioP1;P2;durP2;ratioP2
74291;SDS011;62687;55.738;37.516;2022-12-20T00:00:23;5.15;;;2.40;;
74291;SDS011;62687;55.738;37.516;2022-12-20T00:03:07;5.15;;;1.73;;
74291;SDS011;62687;55.738;37.516;2022-12-20T00:05:51;5.60;;;2.22;;
74291;SDS011;62687;55.738;37.516;2022-12-20T00:08:35;6.03;;;2.40;;
74291;SDS011;62687;55.738;37.516;2022-12-20T00:11:21;3.45;;;1.80;;
74291;SDS011;62687;55.738;37.516;2022-12-20T00:14:05;3.55;;;1.95;;
74291;SDS011;62687;55.738;37.516;2022-12-20T00:16:50;4.75;;;2.45;;
74291;SDS011;62687;55.738;37.516;2022-12-20T00:19:34;5.95;;;2.42;;
74291;SDS011;62687;55.738;37.516;2022-12-20T00:22:19;11.15;;;3.65;;
74291;SDS011;62687;55.738;37.516;2022-12-20T00:25:03;9.00;;;3.22;;
74291;SDS011;62687;55.738;37.516;2022-12-20T00:27:48;3.97;;;2.08;;
74291;SDS011;62687;55.738;37.516;2022-12-20T00:30:34;4.30;;;2.30;;
74291;SDS011;62687;55.738;37.516;2022-12-20T00:33:18;7.88;;;3.47;;
74291;SDS011;62687;55.738;37.516;2022-12-20T00:36:04;5.60;;;2.65;;
74291;SDS011;62687;55.738;37.516;2022-12-20T00:38:50;5.60;;;2.67;;
74291;SDS011;62687;55.738;37.516;2022-12-20T00:41:35;5.63;;;2.55;;
74291;SDS011;62687;55.738;37.516;2022-12-20T00:44:19;3.30;;;1.38;;
74291;SDS011;62687;55.738;37.516;2022-12-20T00:47:03;7.05;;;2.85;;
74291;SDS011;62687;55.738;37.516;2022-12-20T00:49:47;9.45;;;3.38;;
74291;SDS011;62687;55.738;37.516;2022-12-20T00:52:31;6.65;;;2.58;;
74291;SDS011;62687;55.738;37.516;2022-12-20T00:55:15;9.48;;;4.43;;
74291;SDS011;62687;55.738;37.516;2022-12-20T00:57:59;6.70;;;2.63;;
74291;SDS011;62687;55.738;37.516;2022-12-20T01:00:43;4.93;;;2.50;;
74291;SDS011;62687;55.738;37.516;2022-12-20T01:03:27;3.45;;;1.50;;
74291;SDS011;62687;55.738;37.516;2022-12-20T01:06:11;7.47;;;2.40;;
74291;SDS011;62687;55.738;37.516;2022-12-20T01:08:56;4.13;;;1.98;;
74291;SDS011;62687;55.738;37.516;2022-12-20T01:11:41;6.32;;;2.65;;
74291;SDS011;62687;55.738;37.516;2022-12-20T01:14:25;3.58;;;2.00;;
74291;SDS011;62687;55.738;37.516;2022-12-20T01:17:09;3.28;;;1.50;;
74291;SDS011;62687;55.738;37.516;2022-12-20T01:19:53;5.70;;;2.17;;
74291;SDS011;62687;55.738;37.516;2022-12-20T01:22:38;5.53;;;1.80;;
74291;SDS011;62687;55.738;37.516;2022-12-20T01:25:22;3.92;;;2.33;;
74291;SDS011;62687;55.738;37.516;2022-12-20T01:28:06;6.30;;;2.83;;
74291;SDS011;62687;55.738;37.516;2022-12-20T01:30:50;5.40;;;1.73;;
74291;SDS011;62687;55.738;37.516;2022-12-20T01:33:34;3.28;;;1.73;;
74291;SDS011;62687;55.738;37.516;2022-12-20T01:36:20;4.80;;;1.88;;
74291;SDS011;62687;55.738;37.516;2022-12-20T01:39:12;5.68;;;2.03;;
74291;SDS011;62687;55.738;37.516;2022-12-20T01:41:58;3.38;;;1.63;;
74291;SDS011;62687;55.738;37.516;2022-12-20T01:47:28;4.63;;;1.83;;
74291;SDS011;62687;55.738;37.516;2022-12-20T01:50:17;4.28;;;1.85;;
74291;SDS011;62687;55.738;37.516;2022-12-20T01:53:01;4.05;;;1.70;;
74291;SDS011;62687;55.738;37.516;2022-12-20T01:55:48;5.70;;;2.50;;
74291;SDS011;62687;55.738;37.516;2022-12-20T01:58:32;4.43;;;1.95;;
74291;SDS011;62687;55.738;37.516;2022-12-20T02:01:21;8.43;;;3.30;;
74291;SDS011;62687;55.738;37.516;2022-12-20T02:04:06;4.88;;;1.98;;
74291;SDS011;62687;55.738;37.516;2022-12-20T02:06:54;4.82;;;2.03;;
74291;SDS011;62687;55.738;37.516;2022-12-20T02:09:38;3.92;;;2.35;;
74291;SDS011;62687;55.738;37.516;2022-12-20T02:12:23;9.95;;;3.55;;
74291;SDS011;62687;55.738;37.516;2022-12-20T02:18:15;3.53;;;1.92;;
74291;SDS011;62687;55.738;37.516;2022-12-20T02:21:16;6.53;;;2.65;;
74291;SDS011;62687;55.738;37.516;2022-12-20T02:30:31;6.78;;;2.47;;
74291;SDS011;62687;55.738;37.516;2022-12-20T02:33:18;5.90;;;2.05;;
74291;SDS011;62687;55.738;37.516;2022-12-20T02:36:04;6.40;;;3.30;;
74291;SDS011;62687;55.738;37.516;2022-12-20T02:38:49;5.32;;;2.47;;
74291;SDS011;62687;55.738;37.516;2022-12-20T02:41:38;9.10;;;3.28;;
74291;SDS011;62687;55.738;37.516;2022-12-20T02:44:26;5.07;;;2.63;;
74291;SDS011;62687;55.738;37.516;2022-12-20T02:47:33;7.53;;;3.28;;
74291;SDS011;62687;55.738;37.516;2022-12-20T02:50:26;7.53;;;3.28;;
74291;SDS011;62687;55.738;37.516;2022-12-20T02:53:18;9.00;;;4.05;;
74291;SDS011;62687;55.738;37.516;2022-12-20T02:56:06;7.90;;;3.58;;
74291;SDS011;62687;55.738;37.516;2022-12-20T02:59:07;9.55;;;3.53;;
74291;SDS011;62687;55.738;37.516;2022-12-20T03:01:54;8.80;;;4.10;;
74291;SDS011;62687;55.738;37.516;2022-12-20T03:04:39;8.90;;;3.17;;
74291;SDS011;62687;55.738;37.516;2022-12-20T03:07:25;10.32;;;4.10;;
74291;SDS011;62687;55.738;37.516;2022-12-20T03:10:11;10.98;;;4.35;;
74291;SDS011;62687;55.738;37.516;2022-12-20T03:12:56;10.90;;;4.30;;
74291;SDS011;62687;55.738;37.516;2022-12-20T03:15:40;8.80;;;3.17;;
74291;SDS011;62687;55.738;37.516;2022-12-20T03:18:24;9.45;;;4.18;;
74291;SDS011;62687;55.738;37.516;2022-12-20T03:21:08;9.95;;;4.25;;
74291;SDS011;62687;55.738;37.516;2022-12-20T03:23:52;8.57;;;3.60;;
74291;SDS011;62687;55.738;37.516;2022-12-20T03:26:36;9.77;;;3.47;;
74291;SDS011;62687;55.738;37.516;2022-12-20T03:29:20;8.23;;;4.00;;
74291;SDS011;62687;55.738;37.516;2022-12-20T03:32:04;10.70;;;3.92;;
74291;SDS011;62687;55.738;37.516;2022-12-20T03:34:49;7.80;;;3.50;;
74291;SDS011;62687;55.738;37.516;2022-12-20T03:37:33;10.95;;;4.05;;
74291;SDS011;62687;55.738;37.516;2022-12-20T03:40:17;7.47;;;3.45;;
74291;SDS011;62687;55.738;37.516;2022-12-20T03:43:01;14.57;;;5.47;;
74291;SDS011;62687;55.738;37.516;2022-12-20T03:45:45;13.68;;;3.65;;
74291;SDS011;62687;55.738;37.516;2022-12-20T03:48:29;9.93;;;4.07;;
74291;SDS011;62687;55.738;37.516;2022-12-20T03:51:13;5.78;;;2.35;;
74291;SDS011;62687;55.738;37.516;2022-12-20T03:53:57;8.55;;;3.97;;
74291;SDS011;62687;55.738;37.516;2022-12-20T03:56:41;10.45;;;3.78;;
74291;SDS011;62687;55.738;37.516;2022-12-20T03:59:25;12.45;;;5.43;;
74291;SDS011;62687;55.738;37.516;2022-12-20T04:02:09;11.00;;;3.08;;
74291;SDS011;62687;55.738;37.516;2022-12-20T04:04:53;11.32;;;3.10;;
74291;SDS011;62687;55.738;37.516;2022-12-20T04:07:37;10.73;;;5.00;;
74291;SDS011;62687;55.738;37.516;2022-12-20T04:10:22;13.00;;;5.05;;
74291;SDS011;62687;55.738;37.516;2022-12-20T04:13:06;11.20;;;4.15;;
74291;SDS011;62687;55.738;37.516;2022-12-20T04:15:50;13.13;;;4.72;;
74291;SDS011;62687;55.738;37.516;2022-12-20T04:18:34;12.32;;;3.75;;
74291;SDS011;62687;55.738;37.516;2022-12-20T04:21:22;5.93;;;2.47;;
74291;SDS011;62687;55.738;37.516;2022-12-20T04:24:08;9.00;;;4.10;;
74291;SDS011;62687;55.738;37.516;2022-12-20T04:26:53;9.93;;;4.43;;
74291;SDS011;62687;55.738;37.516;2022-12-20T04:29:37;12.70;;;5.13;;
74291;SDS011;62687;55.738;37.516;2022-12-20T04:32:21;13.77;;;5.40;;
74291;SDS011;62687;55.738;37.516;2022-12-20T04:35:05;16.38;;;5.72;;
74291;SDS011;62687;55.738;37.516;2022-12-20T04:37:49;12.10;;;4.85;;
74291;SDS011;62687;55.738;37.516;2022-12-20T04:40:33;10.52;;;4.45;;
74291;SDS011;62687;55.738;37.516;2022-12-20T04:43:17;8.23;;;4.15;;
74291;SDS011;62687;55.738;37.516;2022-12-20T04:46:02;13.45;;;5.93;;
74291;SDS011;62687;55.738;37.516;2022-12-20T04:48:46;13.02;;;4.55;;
74291;SDS011;62687;55.738;37.516;2022-12-20T04:51:30;14.05;;;4.90;;
74291;SDS011;62687;55.738;37.516;2022-12-20T04:54:14;14.65;;;5.15;;
74291;SDS011;62687;55.738;37.516;2022-12-20T04:56:58;13.48;;;4.65;;
74291;SDS011;62687;55.738;37.516;2022-12-20T04:59:42;13.60;;;4.78;;
74291;SDS011;62687;55.738;37.516;2022-12-20T05:02:27;12.48;;;5.18;;
74291;SDS011;62687;55.738;37.516;2022-12-20T05:05:11;7.95;;;3.40;;
74291;SDS011;62687;55.738;37.516;2022-12-20T05:07:55;9.82;;;2.97;;
74291;SDS011;62687;55.738;37.516;2022-12-20T05:10:40;11.52;;;3.90;;
74291;SDS011;62687;55.738;37.516;2022-12-20T05:13:24;10.32;;;4.18;;
74291;SDS011;62687;55.738;37.516;2022-12-20T05:16:08;12.15;;;4.90;;
74291;SDS011;62687;55.738;37.516;2022-12-20T05:18:52;9.65;;;3.92;;
74291;SDS011;62687;55.738;37.516;2022-12-20T05:21:37;7.00;;;3.45;;
74291;SDS011;62687;55.738;37.516;2022-12-20T05:24:40;11.02;;;3.65;;
74291;SDS011;62687;55.738;37.516;2022-12-20T05:27:43;10.75;;;4.55;;
74291;SDS011;62687;55.738;37.516;2022-12-20T05:30:27;13.60;;;4.88;;
74291;SDS011;62687;55.738;37.516;2022-12-20T05:33:11;10.15;;;4.50;;
74291;SDS011;62687;55.738;37.516;2022-12-20T05:35:55;8.85;;;3.88;;
74291;SDS011;62687;55.738;37.516;2022-12-20T05:38:39;12.50;;;4.97;;
74291;SDS011;62687;55.738;37.516;2022-12-20T05:41:23;12.50;;;5.25;;
74291;SDS011;62687;55.738;37.516;2022-12-20T05:44:07;14.13;;;5.28;;
74291;SDS011;62687;55.738;37.516;2022-12-20T05:46:51;11.25;;;4.35;;
74291;SDS011;62687;55.738;37.516;2022-12-20T05:49:35;12.40;;;5.07;;
74291;SDS011;62687;55.738;37.516;2022-12-20T05:52:19;14.30;;;6.43;;
74291;SDS011;62687;55.738;37.516;2022-12-20T05:55:04;13.38;;;5.70;;
74291;SDS011;62687;55.738;37.516;2022-12-20T05:57:48;10.93;;;4.65;;
74291;SDS011;62687;55.738;37.516;2022-12-20T06:00:33;13.73;;;5.43;;
74291;SDS011;62687;55.738;37.516;2022-12-20T06:03:16;13.75;;;5.25;;
74291;SDS011;62687;55.738;37.516;2022-12-20T06:06:02;13.20;;;5.22;;
74291;SDS011;62687;55.738;37.516;2022-12-20T06:08:47;12.95;;;4.47;;
74291;SDS011;62687;55.738;37.516;2022-12-20T06:11:31;10.23;;;4.85;;
74291;SDS011;62687;55.738;37.516;2022-12-20T06:14:14;15.52;;;5.35;;
74291;SDS011;62687;55.738;37.516;2022-12-20T06:16:58;10.55;;;4.95;;
74291;SDS011;62687;55.738;37.516;2022-12-20T06:19:42;7.50;;;3.50;;
74291;SDS011;62687;55.738;37.516;2022-12-20T06:22:26;10.15;;;4.32;;
74291;SDS011;62687;55.738;37.516;2022-12-20T06:25:11;10.25;;;4.50;;
74291;SDS011;62687;55.738;37.516;2022-12-20T06:27:57;8.88;;;4.13;;
74291;SDS011;62687;55.738;37.516;2022-12-20T06:30:42;6.28;;;3.38;;
74291;SDS011;62687;55.738;37.516;2022-12-20T06:33:26;9.43;;;4.13;;
74291;SDS011;62687;55.738;37.516;2022-12-20T06:36:11;10.60;;;4.68;;
74291;SDS011;62687;55.738;37.516;2022-12-20T06:38:54;10.95;;;3.72;;
74291;SDS011;62687;55.738;37.516;2022-12-20T06:41:39;11.38;;;3.97;;
74291;SDS011;62687;55.738;37.516;2022-12-20T06:44:24;9.65;;;3.78;;
74291;SDS011;62687;55.738;37.516;2022-12-20T06:47:08;9.32;;;4.13;;
74291;SDS011;62687;55.738;37.516;2022-12-20T06:49:51;10.35;;;3.72;;
74291;SDS011;62687;55.738;37.516;2022-12-20T06:52:35;11.68;;;4.10;;
74291;SDS011;62687;55.738;37.516;2022-12-20T06:55:19;10.45;;;3.65;;
74291;SDS011;62687;55.738;37.516;2022-12-20T06:58:04;6.40;;;2.55;;
74291;SDS011;62687;55.738;37.516;2022-12-20T07:00:48;10.15;;;3.65;;
74291;SDS011;62687;55.738;37.516;2022-12-20T07:03:32;10.73;;;3.97;;
74291;SDS011;62687;55.738;37.516;2022-12-20T07:06:16;9.65;;;4.22;;
74291;SDS011;62687;55.738;37.516;2022-12-20T07:09:00;8.95;;;3.88;;
74291;SDS011;62687;55.738;37.516;2022-12-20T07:11:44;9.25;;;3.63;;
74291;SDS011;62687;55.738;37.516;2022-12-20T07:14:29;9.82;;;3.67;;
74291;SDS011;62687;55.738;37.516;2022-12-20T07:17:13;9.13;;;3.55;;
74291;SDS011;62687;55.738;37.516;2022-12-20T07:19:57;7.05;;;2.90;;
74291;SDS011;62687;55.738;37.516;2022-12-20T07:22:40;10.50;;;4.22;;
74291;SDS011;62687;55.738;37.516;2022-12-20T07:25:25;6.68;;;3.05;;
74291;SDS011;62687;55.738;37.516;2022-12-20T07:28:08;12.60;;;3.03;;
74291;SDS011;62687;55.738;37.516;2022-12-20T07:30:52;7.78;;;3.08;;
74291;SDS011;62687;55.738;37.516;2022-12-20T07:33:37;6.32;;;2.78;;
74291;SDS011;62687;55.738;37.516;2022-12-20T07:36:24;7.65;;;3.53;;
74291;SDS011;62687;55.738;37.516;2022-12-20T07:39:08;7.72;;;3.20;;
74291;SDS011;62687;55.738;37.516;2022-12-20T07:41:53;9.02;;;3.50;;
74291;SDS011;62687;55.738;37.516;2022-12-20T07:44:38;10.25;;;3.63;;
74291;SDS011;62687;55.738;37.516;2022-12-20T07:47:22;11.80;;;3.83;;
74291;SDS011;62687;55.738;37.516;2022-12-20T07:50:06;8.02;;;3.13;;
74291;SDS011;62687;55.738;37.516;2022-12-20T07:52:51;6.60;;;3.00;;
74291;SDS011;62687;55.738;37.516;2022-12-20T07:55:39;6.38;;;3.00;;
74291;SDS011;62687;55.738;37.516;2022-12-20T07:58:24;6.70;;;2.83;;
74291;SDS011;62687;55.738;37.516;2022-12-20T08:01:10;6.72;;;2.80;;
74291;SDS011;62687;55.738;37.516;2022-12-20T08:03:59;5.65;;;2.90;;
74291;SDS011;62687;55.738;37.516;2022-12-20T08:06:54;4.75;;;1.75;;
74291;SDS011;62687;55.738;37.516;2022-12-20T08:09:41;6.68;;;2.20;;
74291;SDS011;62687;55.738;37.516;2022-12-20T08:12:27;7.80;;;3.42;;
74291;SDS011;62687;55.738;37.516;2022-12-20T08:15:13;5.13;;;1.92;;
74291;SDS011;62687;55.738;37.516;2022-12-20T08:17:57;5.70;;;2.45;;
74291;SDS011;62687;55.738;37.516;2022-12-20T08:20:42;3.97;;;2.15;;
74291;SDS011;62687;55.738;37.516;2022-12-20T08:23:27;6.63;;;2.42;;
74291;SDS011;62687;55.738;37.516;2022-12-20T08:26:11;3.88;;;2.55;;
74291;SDS011;62687;55.738;37.516;2022-12-20T08:28:55;6.28;;;2.70;;
74291;SDS011;62687;55.738;37.516;2022-12-20T08:31:39;5.35;;;2.50;;
74291;SDS011;62687;55.738;37.516;2022-12-20T08:34:27;3.35;;;1.85;;
74291;SDS011;62687;55.738;37.516;2022-12-20T08:37:10;6.80;;;2.40;;
74291;SDS011;62687;55.738;37.516;2022-12-20T08:39:54;5.68;;;2.30;;
74291;SDS011;62687;55.738;37.516;2022-12-20T08:42:38;6.72;;;2.13;;
74291;SDS011;62687;55.738;37.516;2022-12-20T08:45:23;3.90;;;2.20;;
74291;SDS011;62687;55.738;37.516;2022-12-20T08:48:07;6.22;;;2.65;;
74291;SDS011;62687;55.738;37.516;2022-12-20T08:50:57;8.32;;;2.88;;
74291;SDS011;62687;55.738;37.516;2022-12-20T08:53:43;6.07;;;2.63;;
74291;SDS011;62687;55.738;37.516;2022-12-20T08:56:27;5.32;;;2.25;;
74291;SDS011;62687;55.738;37.516;2022-12-20T08:59:11;6.15;;;2.53;;
74291;SDS011;62687;55.738;37.516;2022-12-20T09:01:55;7.45;;;2.75;;
74291;SDS011;62687;55.738;37.516;2022-12-20T09:04:39;4.93;;;2.30;;
74291;SDS011;62687;55.738;37.516;2022-12-20T09:07:23;7.13;;;2.88;;
74291;SDS011;62687;55.738;37.516;2022-12-20T09:10:07;6.55;;;2.88;;
74291;SDS011;62687;55.738;37.516;2022-12-20T09:12:52;5.40;;;2.80;;
74291;SDS011;62687;55.738;37.516;2022-12-20T09:15:36;8.65;;;2.92;;
74291;SDS011;62687;55.738;37.516;2022-12-20T09:18:20;6.88;;;2.25;;
74291;SDS011;62687;55.738;37.516;2022-12-20T09:21:05;6.10;;;3.28;;
74291;SDS011;62687;55.738;37.516;2022-12-20T09:23:50;4.65;;;2.05;;
74291;SDS011;62687;55.738;37.516;2022-12-20T09:26:36;12.13;;;2.90;;
74291;SDS011;62687;55.738;37.516;2022-12-20T09:29:20;5.55;;;1.80;;
74291;SDS011;62687;55.738;37.516;2022-12-20T09:32:04;5.20;;;2.42;;
74291;SDS011;62687;55.738;37.516;2022-12-20T09:34:49;6.10;;;2.75;;
74291;SDS011;62687;55.738;37.516;2022-12-20T09:37:33;3.38;;;1.63;;
74291;SDS011;62687;55.738;37.516;2022-12-20T09:40:17;5.78;;;2.67;;
74291;SDS011;62687;55.738;37.516;2022-12-20T09:43:04;3.45;;;1.70;;
74291;SDS011;62687;55.738;37.516;2022-12-20T09:45:59;5.50;;;2.08;;
74291;SDS011;62687;55.738;37.516;2022-12-20T09:48:46;3.63;;;1.20;;
74291;SDS011;62687;55.738;37.516;2022-12-20T09:57:55;4.80;;;2.47;;
74291;SDS011;62687;55.738;37.516;2022-12-20T10:00:39;9.43;;;2.92;;
74291;SDS011;62687;55.738;37.516;2022-12-20T10:03:28;6.15;;;2.83;;
74291;SDS011;62687;55.738;37.516;2022-12-20T10:07:02;4.97;;;2.08;;
74291;SDS011;62687;55.738;37.516;2022-12-20T10:16:09;5.65;;;2.35;;
74291;SDS011;62687;55.738;37.516;2022-12-20T10:25:00;6.38;;;3.25;;
74291;SDS011;62687;55.738;37.516;2022-12-20T10:27:55;6.47;;;3.13;;
74291;SDS011;62687;55.738;37.516;2022-12-20T10:30:40;5.75;;;2.58;;
74291;SDS011;62687;55.738;37.516;2022-12-20T10:33:25;5.45;;;2.80;;
74291;SDS011;62687;55.738;37.516;2022-12-20T10:39:02;5.28;;;2.88;;
74291;SDS011;62687;55.738;37.516;2022-12-20T10:41:51;6.90;;;2.72;;
74291;SDS011;62687;55.738;37.516;2022-12-20T10:44:35;5.82;;;2.42;;
74291;SDS011;62687;55.738;37.516;2022-12-20T10:50:12;7.25;;;3.17;;
74291;SDS011;62687;55.738;37.516;2022-12-20T10:56:16;5.93;;;2.90;;
74291;SDS011;62687;55.738;37.516;2022-12-20T11:07:56;4.15;;;1.88;;
74291;SDS011;62687;55.738;37.516;2022-12-20T11:10:43;7.55;;;2.42;;
74291;SDS011;62687;55.738;37.516;2022-12-20T11:13:27;4.90;;;2.22;;
74291;SDS011;62687;55.738;37.516;2022-12-20T11:28:39;6.30;;;2.38;;
74291;SDS011;62687;55.738;37.516;2022-12-20T11:37:56;6.38;;;3.20;;
74291;SDS011;62687;55.738;37.516;2022-12-20T11:40:55;6.65;;;3.08;;
74291;SDS011;62687;55.738;37.516;2022-12-20T11:52:49;6.50;;;2.88;;
74291;SDS011;62687;55.738;37.516;2022-12-20T11:55:38;3.97;;;2.25;;
74291;SDS011;62687;55.738;37.516;2022-12-20T11:58:28;9.77;;;2.85;;
74291;SDS011;62687;55.738;37.516;2022-12-20T12:01:20;6.05;;;2.08;;
74291;SDS011;62687;55.738;37.516;2022-12-20T12:04:20;7.13;;;3.25;;
74291;SDS011;62687;55.738;37.516;2022-12-20T12:07:10;5.75;;;2.38;;
74291;SDS011;62687;55.738;37.516;2022-12-20T12:10:22;6.53;;;2.67;;
74291;SDS011;62687;55.738;37.516;2022-12-20T12:16:10;7.00;;;2.90;;
74291;SDS011;62687;55.738;37.516;2022-12-20T12:18:59;6.90;;;2.83;;
74291;SDS011;62687;55.738;37.516;2022-12-20T12:21:48;7.78;;;2.38;;
74291;SDS011;62687;55.738;37.516;2022-12-20T12:24:40;6.93;;;2.80;;
74291;SDS011;62687;55.738;37.516;2022-12-20T12:27:28;4.20;;;1.75;;
74291;SDS011;62687;55.738;37.516;2022-12-20T12:30:13;5.32;;;2.10;;
74291;SDS011;62687;55.738;37.516;2022-12-20T12:32:59;5.78;;;2.10;;
74291;SDS011;62687;55.738;37.516;2022-12-20T12:42:14;8.05;;;2.47;;
74291;SDS011;62687;55.738;37.516;2022-12-20T12:45:08;6.75;;;2.90;;
74291;SDS011;62687;55.738;37.516;2022-12-20T12:48:26;7.93;;;3.30;;
74291;SDS011;62687;55.738;37.516;2022-12-20T12:51:20;11.40;;;3.13;;
74291;SDS011;62687;55.738;37.516;2022-12-20T12:54:21;7.35;;;2.85;;
74291;SDS011;62687;55.738;37.516;2022-12-20T12:57:16;7.53;;;3.08;;
74291;SDS011;62687;55.738;37.516;2022-12-20T13:00:01;7.03;;;2.83;;
74291;SDS011;62687;55.738;37.516;2022-12-20T13:02:49;6.82;;;3.10;;
74291;SDS011;62687;55.738;37.516;2022-12-20T13:05:34;9.63;;;4.20;;
74291;SDS011;62687;55.738;37.516;2022-12-20T13:08:18;7.97;;;2.78;;
74291;SDS011;62687;55.738;37.516;2022-12-20T13:11:32;8.45;;;3.50;;
74291;SDS011;62687;55.738;37.516;2022-12-20T13:19:49;11.73;;;3.30;;
74291;SDS011;62687;55.738;37.516;2022-12-20T13:22:35;3.70;;;1.60;;
74291;SDS011;62687;55.738;37.516;2022-12-20T13:25:27;10.90;;;3.20;;
74291;SDS011;62687;55.738;37.516;2022-12-20T13:33:50;7.07;;;3.40;;
74291;SDS011;62687;55.738;37.516;2022-12-20T13:36:35;8.55;;;3.40;;
74291;SDS011;62687;55.738;37.516;2022-12-20T13:42:16;10.88;;;3.97;;
74291;SDS011;62687;55.738;37.516;2022-12-20T13:45:10;9.88;;;3.80;;
74291;SDS011;62687;55.738;37.516;2022-12-20T13:47:59;9.18;;;3.72;;
74291;SDS011;62687;55.738;37.516;2022-12-20T13:50:49;8.15;;;3.67;;
74291;SDS011;62687;55.738;37.516;2022-12-20T13:53:36;10.57;;;3.55;;
74291;SDS011;62687;55.738;37.516;2022-12-20T13:59:18;9.13;;;4.47;;
74291;SDS011;62687;55.738;37.516;2022-12-20T14:02:09;10.15;;;4.13;;
74291;SDS011;62687;55.738;37.516;2022-12-20T14:05:03;10.30;;;3.90;;
74291;SDS011;62687;55.738;37.516;2022-12-20T14:10:46;12.18;;;4.40;;
74291;SDS011;62687;55.738;37.516;2022-12-20T14:13:31;11.50;;;4.22;;
74291;SDS011;62687;55.738;37.516;2022-12-20T14:16:16;11.75;;;4.13;;
74291;SDS011;62687;55.738;37.516;2022-12-20T14:19:02;6.97;;;3.08;;
74291;SDS011;62687;55.738;37.516;2022-12-20T14:21:48;9.55;;;4.00;;
74291;SDS011;62687;55.738;37.516;2022-12-20T14:24:32;9.95;;;3.97;;
74291;SDS011;62687;55.738;37.516;2022-12-20T14:27:17;11.10;;;3.50;;
74291;SDS011;62687;55.738;37.516;2022-12-20T14:30:02;9.45;;;3.40;;
74291;SDS011;62687;55.738;37.516;2022-12-20T14:32:48;14.02;;;4.28;;
74291;SDS011;62687;55.738;37.516;2022-12-20T14:35:33;10.02;;;3.78;;
74291;SDS011;62687;55.738;37.516;2022-12-20T14:38:27;7.72;;;3.88;;
74291;SDS011;62687;55.738;37.516;2022-12-20T14:44:21;5.38;;;1.40;;
74291;SDS011;62687;55.738;37.516;2022-12-20T14:47:14;10.48;;;4.10;;
74291;SDS011;62687;55.738;37.516;2022-12-20T14:49:59;11.27;;;3.83;;
74291;SDS011;62687;55.738;37.516;2022-12-20T14:52:46;11.60;;;4.45;;
74291;SDS011;62687;55.738;37.516;2022-12-20T14:55:32;9.18;;;1.52;;
74291;SDS011;62687;55.738;37.516;2022-12-20T14:58:37;9.63;;;3.92;;
74291;SDS011;62687;55.738;37.516;2022-12-20T15:01:25;8.00;;;4.00;;
74291;SDS011;62687;55.738;37.516;2022-12-20T15:04:20;9.25;;;4.13;;
74291;SDS011;62687;55.738;37.516;2022-12-20T15:07:27;10.07;;;3.63;;
74291;SDS011;62687;55.738;37.516;2022-12-20T15:10:12;11.07;;;3.88;;
74291;SDS011;62687;55.738;37.516;2022-12-20T15:12:57;10.75;;;4.88;;
74291;SDS011;62687;55.738;37.516;2022-12-20T15:15:41;10.55;;;4.35;;
74291;SDS011;62687;55.738;37.516;2022-12-20T15:18:25;8.65;;;3.80;;
74291;SDS011;62687;55.738;37.516;2022-12-20T15:24:22;13.02;;;4.90;;
74291;SDS011;62687;55.738;37.516;2022-12-20T15:27:12;10.13;;;3.85;;
74291;SDS011;62687;55.738;37.516;2022-12-20T15:29:57;13.18;;;4.55;;
74291;SDS011;62687;55.738;37.516;2022-12-20T15:32:41;12.73;;;4.68;;
74291;SDS011;62687;55.738;37.516;2022-12-20T15:35:26;14.77;;;4.88;;
74291;SDS011;62687;55.738;37.516;2022-12-20T15:38:13;14.38;;;4.60;;
74291;SDS011;62687;55.738;37.516;2022-12-20T15:41:01;16.67;;;4.22;;
74291;SDS011;62687;55.738;37.516;2022-12-20T15:43:47;10.35;;;4.55;;
74291;SDS011;62687;55.738;37.516;2022-12-20T15:46:38;5.47;;;2.45;;
74291;SDS011;62687;55.738;37.516;2022-12-20T15:49:23;13.35;;;4.10;;
74291;SDS011;62687;55.738;37.516;2022-12-20T15:52:15;8.43;;;3.92;;
74291;SDS011;62687;55.738;37.516;2022-12-20T15:55:03;8.32;;;4.20;;
74291;SDS011;62687;55.738;37.516;2022-12-20T15:57:47;8.60;;;3.83;;
74291;SDS011;62687;55.738;37.516;2022-12-20T16:00:31;10.55;;;4.22;;
74291;SDS011;62687;55.738;37.516;2022-12-20T16:03:18;11.63;;;4.25;;
74291;SDS011;62687;55.738;37.516;2022-12-20T16:06:05;6.82;;;2.55;;
74291;SDS011;62687;55.738;37.516;2022-12-20T16:08:49;9.40;;;4.00;;
74291;SDS011;62687;55.738;37.516;2022-12-20T16:11:33;11.13;;;3.65;;
74291;SDS011;62687;55.738;37.516;2022-12-20T16:14:19;13.23;;;3.50;;
74291;SDS011;62687;55.738;37.516;2022-12-20T16:17:04;11.35;;;3.40;;
74291;SDS011;62687;55.738;37.516;2022-12-20T16:19:48;9.90;;;4.10;;
74291;SDS011;62687;55.738;37.516;2022-12-20T16:22:32;9.75;;;3.97;;
74291;SDS011;62687;55.738;37.516;2022-12-20T16:25:30;10.35;;;3.58;;
74291;SDS011;62687;55.738;37.516;2022-12-20T16:28:16;8.80;;;3.72;;
74291;SDS011;62687;55.738;37.516;2022-12-20T16:31:08;10.40;;;4.50;;
74291;SDS011;62687;55.738;37.516;2022-12-20T16:33:54;9.10;;;3.38;;
74291;SDS011;62687;55.738;37.516;2022-12-20T16:36:38;3.97;;;1.77;;
74291;SDS011;62687;55.738;37.516;2022-12-20T16:39:22;5.95;;;2.53;;
74291;SDS011;62687;55.738;37.516;2022-12-20T16:42:13;13.93;;;4.00;;
74291;SDS011;62687;55.738;37.516;2022-12-20T16:45:02;9.85;;;3.35;;
74291;SDS011;62687;55.738;37.516;2022-12-20T16:47:46;7.60;;;3.22;;
74291;SDS011;62687;55.738;37.516;2022-12-20T16:50:31;8.93;;;2.90;;
74291;SDS011;62687;55.738;37.516;2022-12-20T16:53:15;6.90;;;2.80;;
74291;SDS011;62687;55.738;37.516;2022-12-20T16:55:59;8.80;;;4.05;;
74291;SDS011;62687;55.738;37.516;2022-12-20T16:58:44;10.13;;;4.50;;
74291;SDS011;62687;55.738;37.516;2022-12-20T17:01:29;11.98;;;4.57;;
74291;SDS011;62687;55.738;37.516;2022-12-20T17:04:16;15.23;;;3.63;;
74291;SDS011;62687;55.738;37.516;2022-12-20T17:07:01;14.13;;;5.00;;
74291;SDS011;62687;55.738;37.516;2022-12-20T17:09:45;11.75;;;4.75;;
74291;SDS011;62687;55.738;37.516;2022-12-20T17:12:29;14.25;;;5.13;;
74291;SDS011;62687;55.738;37.516;2022-12-20T17:15:24;11.55;;;4.40;;
74291;SDS011;62687;55.738;37.516;2022-12-20T17:18:10;11.95;;;5.18;;
74291;SDS011;62687;55.738;37.516;2022-12-20T17:20:54;14.18;;;4.40;;
74291;SDS011;62687;55.738;37.516;2022-12-20T17:23:38;13.13;;;5.30;;
74291;SDS011;62687;55.738;37.516;2022-12-20T17:26:23;13.18;;;4.85;;
74291;SDS011;62687;55.738;37.516;2022-12-20T17:29:09;10.02;;;3.20;;
74291;SDS011;62687;55.738;37.516;2022-12-20T17:31:54;13.70;;;4.50;;
74291;SDS011;62687;55.738;37.516;2022-12-20T17:34:38;11.50;;;3.97;;
74291;SDS011;62687;55.738;37.516;2022-12-20T17:37:22;11.93;;;4.32;;
74291;SDS011;62687;55.738;37.516;2022-12-20T17:40:07;6.28;;;2.75;;
74291;SDS011;62687;55.738;37.516;2022-12-20T17:42:52;12.15;;;5.18;;
74291;SDS011;62687;55.738;37.516;2022-12-20T17:45:37;13.25;;;4.38;;
74291;SDS011;62687;55.738;37.516;2022-12-20T17:48:22;15.18;;;5.70;;
74291;SDS011;62687;55.738;37.516;2022-12-20T17:51:19;13.93;;;5.72;;
74291;SDS011;62687;55.738;37.516;2022-12-20T17:54:07;10.90;;;4.88;;
74291;SDS011;62687;55.738;37.516;2022-12-20T17:57:00;12.13;;;5.70;;
74291;SDS011;62687;55.738;37.516;2022-12-20T17:59:44;18.85;;;7.30;;
74291;SDS011;62687;55.738;37.516;2022-12-20T18:02:27;24.92;;;9.40;;
74291;SDS011;62687;55.738;37.516;2022-12-20T18:05:12;22.00;;;9.32;;
74291;SDS011;62687;55.738;37.516;2022-12-20T18:07:56;23.30;;;9.48;;
74291;SDS011;62687;55.738;37.516;2022-12-20T18:10:40;17.63;;;7.00;;
74291;SDS011;62687;55.738;37.516;2022-12-20T18:13:24;16.23;;;7.47;;
74291;SDS011;62687;55.738;37.516;2022-12-20T18:16:08;16.50;;;7.70;;